Cedar Point, KS (66843)

8:31 PM CST on February 07, 2016 (GMT -0600)
Marion County Lake | | Change Station
CLOSE
Current Station
Personal Weather Station
Location: Marion, KS
Elevation: 1362 ft
Nearby Weather Stations
Active Advisory: Wind Advisory

Elev 1362 ft 38.32 °N, 96.99 °W | Updated 10 seconds ago

Clear
Clear
38.5 °F
Feels Like 34 °F
N
5.4
Wind Variable Wind from North
Gusts 6.0 mph

Today
High -- | Low -- °F
--% Chance of Precip.
Yesterday
High -- | Low -- °F
Precip. -- in
Pressure 30.13 in
Visibility 10.0 miles
Clouds Few 9500 ft
Windchill 34 °F
Dew Point 3 °F
Humidity 22%
Rainfall 0.00 in
Snow Depth Not available.
7:26 AM 5:55 PM
Waning Crescent, 0% visible
METAR KEMP 080153Z AUTO 30010KT 10SM FEW095 05/M07 A3010 RMK AO2 SLP203 T00501067
Pressure 30.13 in
Visibility 10.0 miles
Clouds Few 9500 ft
Windchill 34 °F
Dew Point 3 °F
Humidity 22%
Rainfall 0.00 in
Snow Depth Not available.
7:26 AM 5:55 PM
Waning Crescent, 0% visible
METAR KEMP 080153Z AUTO 30010KT 10SM FEW095 05/M07 A3010 RMK AO2 SLP203 T00501067

10-Day Weather Forecast

Almanac

Astronomy

Feb. 07, 2016 Rise Set
Actual Time
Civil Twilight
Nautical Twilight
Astronomical Twilight
Moon
Length of Visible Light
Length of Day
Tomorrow will be .
, % of the Moon is Illuminated

Today's Extremes

State Highs State Lows

Community

WunderPhotos

Upload Photos

1,891,373 photos uploaded!

WunderBlog® & News

Nearby

Air Quality

  Air Quality AQ Index Pollutant
Not available.

Snow Depth

Station Depth Elevation

Earthquake Activity

City Distance Mag. Time & Date
Minimum magnitude displayed is 2.5.

Coastal Water Temperatures

Place Temperature

Stations

Nearby Weather Stations

Station Location Temp. Windchill Dew Point Humidity Wind Precip. Elev Updated Type
                   

Watches & Warnings

Wind Advisory
Issued: 6:53 PM CST Feb. 7, 2016 – National Weather Service

... Wind Advisory remains in effect from 9 am to 6 PM CST Monday...
... Wind Advisory will expire at 7 PM CST this evening...

* winds... northwest 20 to 30 mph with gusts up to 45 mph.

* Timing... strong northwest winds will redevelop during the mid-
morning hours on Monday and continue through early evening.

Precautionary/preparedness actions...

A Wind Advisory means that sustained winds of at least 30 mph
and/or wind gusts over 45 mph are expected. Winds this strong
can make driving difficult... especially for high profile
vehicles. Use extra caution.